createdAt,value
2024-02-24T00:01:09.123Z,1.02
2024-02-24T00:03:35.928Z,1.27
2024-02-24T00:06:03.214Z,1.50
2024-02-24T00:08:30.015Z,1.02
2024-02-24T00:10:58.203Z,1.23
2024-02-24T00:13:24.894Z,1.08
2024-02-24T00:15:51.776Z,1.15
2024-02-24T00:18:19.962Z,1.45
2024-02-24T00:20:46.677Z,1.40
2024-02-24T00:23:13.543Z,1.55
2024-02-24T00:25:40.318Z,1.10
2024-02-24T00:28:10.555Z,1.40
2024-02-24T00:30:37.761Z,1.55
2024-02-24T00:33:05.244Z,0.85
2024-02-24T00:35:32.164Z,1.15
2024-02-24T00:37:59.135Z,1.77
2024-02-24T00:40:26.006Z,1.20
2024-02-24T00:42:52.693Z,1.80
2024-02-24T00:45:20.752Z,1.23
2024-02-24T00:47:47.546Z,1.20
2024-02-24T00:50:14.361Z,1.30
2024-02-24T00:52:41.259Z,1.30
2024-02-24T00:55:08.751Z,1.05
2024-02-24T00:57:35.705Z,1.95
2024-02-24T01:00:03.232Z,1.70
2024-02-24T01:02:31.336Z,2.10
2024-02-24T01:04:58.028Z,1.20
2024-02-24T01:07:24.783Z,1.75
2024-02-24T01:09:51.475Z,1.48
2024-02-24T01:12:18.246Z,1.67
2024-02-24T01:14:45.148Z,1.23
2024-02-24T01:17:13.225Z,1.65
2024-02-24T01:19:41.279Z,1.02
2024-02-24T01:22:08.532Z,1.50
2024-02-24T01:24:35.263Z,1.10
2024-02-24T01:27:01.928Z,1.67
2024-02-24T01:29:28.720Z,1.23
2024-02-24T01:31:55.578Z,1.63
2024-02-24T01:34:22.360Z,1.20
2024-02-24T01:36:50.461Z,1.65
2024-02-24T01:39:17.163Z,1.05
2024-02-24T01:41:44.397Z,1.50
2024-02-24T01:44:11.598Z,1.33
2024-02-24T01:46:38.352Z,1.40
2024-02-24T01:49:05.240Z,1.40
2024-02-24T01:51:32.510Z,1.65
2024-02-24T01:54:00.732Z,1.70
2024-02-24T01:56:27.919Z,1.33
2024-02-24T01:58:55.164Z,1.08
2024-02-24T02:01:22.126Z,1.50
2024-02-24T02:03:48.933Z,1.00
2024-02-24T02:06:15.785Z,0.93
2024-02-24T02:08:42.556Z,1.05
2024-02-24T02:11:11.805Z,1.65
2024-02-24T02:13:38.780Z,0.82
2024-02-24T02:16:06.467Z,1.27
2024-02-24T02:18:35.559Z,0.88
2024-02-24T02:21:03.977Z,1.20
2024-02-24T02:23:32.158Z,1.25
2024-02-24T02:25:59.037Z,1.13
2024-02-24T02:28:25.827Z,0.93
2024-02-24T02:30:52.982Z,1.52
2024-02-24T02:33:20.055Z,0.82
2024-02-24T02:35:47.080Z,1.23
2024-02-24T02:38:14.131Z,0.90
2024-02-24T02:40:42.243Z,0.90
2024-02-24T02:43:09.093Z,1.30
2024-02-24T02:45:35.807Z,1.25
2024-02-24T02:48:02.733Z,1.77
2024-02-24T02:50:29.638Z,1.15
2024-02-24T02:52:56.978Z,1.60
2024-02-24T02:55:23.695Z,0.93
2024-02-24T02:57:52.113Z,0.98
2024-02-24T03:00:19.236Z,0.85
2024-02-24T03:02:46.048Z,0.98
2024-02-24T03:05:13.110Z,1.77
2024-02-24T03:07:39.871Z,0.80
2024-02-24T03:10:08.171Z,1.08
2024-02-24T03:12:35.190Z,1.20
2024-02-24T03:15:03.850Z,0.80
2024-02-24T03:17:30.647Z,0.90
2024-02-24T03:19:57.532Z,0.93
2024-02-24T03:22:24.253Z,1.00
2024-02-24T03:24:51.106Z,1.42
2024-02-24T03:27:17.845Z,0.82
2024-02-24T03:29:44.661Z,0.75
2024-02-24T03:32:12.860Z,1.20
2024-02-24T03:34:39.625Z,0.70
2024-02-24T03:37:06.430Z,1.10
2024-02-24T03:39:33.260Z,1.27
2024-02-24T03:41:59.939Z,0.80
2024-02-24T03:44:26.647Z,0.75
2024-02-24T03:46:53.879Z,1.50
2024-02-24T03:49:21.934Z,1.10
2024-02-24T03:51:48.697Z,0.90
2024-02-24T03:54:15.435Z,1.80
2024-02-24T03:56:42.130Z,0.98
2024-02-24T03:59:08.922Z,1.38
2024-02-24T04:01:35.669Z,1.05
2024-02-24T04:04:02.420Z,0.82
2024-02-24T04:06:30.621Z,1.00
2024-02-24T04:08:57.427Z,1.02
2024-02-24T04:11:24.260Z,1.20
2024-02-24T04:13:50.991Z,0.80
2024-02-24T04:16:18.070Z,1.35
2024-02-24T04:18:44.965Z,1.13
2024-02-24T04:21:11.732Z,1.05
2024-02-24T04:23:39.833Z,1.75
2024-02-24T04:26:06.626Z,1.77
2024-02-24T04:28:33.523Z,0.98
2024-02-24T04:31:00.372Z,0.90
2024-02-24T04:33:27.234Z,0.85
2024-02-24T04:35:54.047Z,0.70
2024-02-24T04:38:20.838Z,1.08
2024-02-24T04:40:48.915Z,1.15
2024-02-24T04:43:16.580Z,1.15
2024-02-24T04:45:43.282Z,1.35
2024-02-24T04:48:10.097Z,0.85
2024-02-24T04:50:36.994Z,1.40
2024-02-24T04:53:04.080Z,0.95
2024-02-24T04:55:30.841Z,1.60
2024-02-24T04:57:59.014Z,1.50
2024-02-24T05:00:26.415Z,1.38
2024-02-24T05:02:54.026Z,1.52
2024-02-24T05:05:20.932Z,1.33
2024-02-24T05:07:47.647Z,1.17
2024-02-24T05:10:14.381Z,1.67
2024-02-24T05:12:48.800Z,1.30
2024-02-24T05:15:18.612Z,1.63
2024-02-24T05:17:45.618Z,1.42
2024-02-24T05:20:14.146Z,2.08
2024-02-24T05:22:41.145Z,2.40
2024-02-24T05:25:09.820Z,1.35
2024-02-24T05:27:36.911Z,1.70
2024-02-24T05:30:04.762Z,1.10
2024-02-24T05:32:32.957Z,1.10
2024-02-24T05:34:59.824Z,1.15
2024-02-24T05:37:26.610Z,1.52
2024-02-24T05:39:53.574Z,1.40
2024-02-24T05:42:20.707Z,1.50
2024-02-24T05:44:47.448Z,1.90
2024-02-24T05:47:14.214Z,1.73
2024-02-24T05:49:42.564Z,1.60
2024-02-24T05:52:09.389Z,1.70
2024-02-24T05:54:40.011Z,1.50
2024-02-24T05:57:06.814Z,1.00
2024-02-24T05:59:33.540Z,1.13
2024-02-24T06:02:00.545Z,1.77
2024-02-24T06:04:27.294Z,1.80
2024-02-24T06:06:55.411Z,1.23
2024-02-24T06:09:22.138Z,1.60
2024-02-24T06:11:49.019Z,1.10
2024-02-24T06:14:15.832Z,1.55
2024-02-24T06:16:42.619Z,1.42
2024-02-24T06:19:09.854Z,1.10
2024-02-24T06:21:36.653Z,1.70
2024-02-24T06:24:05.197Z,1.10
2024-02-24T06:26:31.956Z,1.40
2024-02-24T06:28:58.659Z,1.42
2024-02-24T06:31:25.389Z,1.70
2024-02-24T06:33:52.249Z,1.30
2024-02-24T06:36:19.032Z,1.42
2024-02-24T06:38:45.843Z,1.73
2024-02-24T06:41:15.459Z,1.83
2024-02-24T06:43:42.278Z,1.20
2024-02-24T06:46:10.722Z,1.85
2024-02-24T06:48:37.585Z,1.73
2024-02-24T06:51:05.232Z,1.33
2024-02-24T06:53:32.092Z,1.67
2024-02-24T06:55:58.803Z,1.13
2024-02-24T06:58:26.870Z,1.15
2024-02-24T07:00:53.559Z,1.42
2024-02-24T07:03:20.376Z,1.73
2024-02-24T07:05:47.348Z,1.70
2024-02-24T07:08:14.079Z,1.55
2024-02-24T07:10:40.822Z,1.45
2024-02-24T07:13:07.472Z,1.33
2024-02-24T07:15:35.533Z,1.20
2024-02-24T07:18:02.365Z,1.60
2024-02-24T07:20:29.170Z,1.85
2024-02-24T07:22:55.922Z,2.03
2024-02-24T07:25:22.652Z,1.33
2024-02-24T07:27:49.784Z,1.77
2024-02-24T07:30:16.559Z,1.77
2024-02-24T07:32:46.825Z,1.38
2024-02-24T07:35:14.585Z,1.33
2024-02-24T07:37:41.386Z,2.10
2024-02-24T07:40:09.193Z,2.03
2024-02-24T07:42:36.024Z,1.65
2024-02-24T07:45:03.124Z,1.25
2024-02-24T07:47:30.030Z,1.42
2024-02-24T07:49:58.190Z,1.65
2024-02-24T07:52:24.892Z,1.35
2024-02-24T07:54:51.653Z,1.38
2024-02-24T07:57:18.358Z,2.20
2024-02-24T07:59:45.135Z,1.75
2024-02-24T08:02:12.004Z,1.60
2024-02-24T08:04:38.775Z,2.00
2024-02-24T08:07:06.995Z,2.03
2024-02-24T08:09:33.743Z,1.60
2024-02-24T08:12:01.047Z,2.22
2024-02-24T08:14:28.006Z,2.03
2024-02-24T08:16:54.734Z,1.38
2024-02-24T08:19:21.678Z,2.20
2024-02-24T08:21:48.523Z,1.85
2024-02-24T08:24:17.711Z,2.30
2024-02-24T08:26:45.757Z,2.70
2024-02-24T08:29:12.947Z,2.28
2024-02-24T08:31:40.190Z,2.05
2024-02-24T08:34:07.263Z,2.20
2024-02-24T08:36:34.656Z,2.03
2024-02-24T08:39:02.202Z,2.88
2024-02-24T08:41:33.312Z,1.92
2024-02-24T08:44:00.821Z,2.30
2024-02-24T08:46:27.632Z,1.65
2024-02-24T08:48:55.405Z,1.88
2024-02-24T08:51:22.632Z,1.77
2024-02-24T08:53:49.721Z,1.65
2024-02-24T08:56:19.369Z,2.40
2024-02-24T08:58:47.718Z,1.73
2024-02-24T09:01:15.194Z,1.38
2024-02-24T09:03:42.276Z,2.10
2024-02-24T09:06:09.426Z,1.70
2024-02-24T09:08:38.649Z,2.30
2024-02-24T09:11:05.623Z,2.00
2024-02-24T09:13:32.423Z,2.20
2024-02-24T09:16:00.816Z,1.58
2024-02-24T09:18:29.249Z,1.63
2024-02-24T09:20:56.297Z,2.25
2024-02-24T09:23:23.190Z,1.80
2024-02-24T09:25:49.973Z,1.50
2024-02-24T09:28:16.665Z,1.60
2024-02-24T09:30:43.451Z,1.60
2024-02-24T09:33:11.925Z,2.08
2024-02-24T09:35:38.840Z,1.52
2024-02-24T09:38:05.714Z,1.80
2024-02-24T09:40:32.502Z,1.83
2024-02-24T09:43:04.464Z,1.02
2024-02-24T09:45:35.234Z,1.20
2024-02-24T09:48:02.461Z,1.75
2024-02-24T09:50:30.819Z,1.90
2024-02-24T09:52:57.712Z,1.50
2024-02-24T09:55:24.586Z,1.02
2024-02-24T09:57:54.867Z,1.58
2024-02-24T10:00:21.769Z,2.03
2024-02-24T10:02:50.416Z,1.75
2024-02-24T10:05:17.801Z,1.73
2024-02-24T10:07:46.665Z,2.17
2024-02-24T10:10:15.674Z,2.95
2024-02-24T10:12:56.114Z,2.20
2024-02-24T10:15:23.037Z,2.55
2024-02-24T10:17:49.955Z,2.25
2024-02-24T10:20:16.900Z,2.20
2024-02-24T10:22:43.658Z,2.15
2024-02-24T10:25:12.026Z,2.90
2024-02-24T10:27:40.081Z,2.22
2024-02-24T10:30:08.257Z,2.03
2024-02-24T10:32:35.580Z,2.85
2024-02-24T10:35:04.182Z,2.15
2024-02-24T10:37:48.630Z,2.38
2024-02-24T10:40:23.233Z,2.70
2024-02-24T10:42:50.707Z,2.70
2024-02-24T10:45:18.034Z,2.60
2024-02-24T10:47:44.874Z,3.08
2024-02-24T10:50:13.061Z,2.72
2024-02-24T10:52:41.864Z,3.10
2024-02-24T10:55:09.360Z,2.47
2024-02-24T10:57:38.767Z,2.50
2024-02-24T11:00:24.926Z,2.47
2024-02-24T11:02:52.009Z,3.20
2024-02-24T11:05:19.343Z,2.22
2024-02-24T11:07:46.113Z,2.72
2024-02-24T11:10:16.656Z,2.97
2024-02-24T11:12:44.714Z,2.55
2024-02-24T11:15:17.731Z,3.08
2024-02-24T11:17:56.848Z,2.70
2024-02-24T11:20:54.425Z,2.40
2024-02-24T11:23:23.005Z,2.20
2024-02-24T11:26:10.346Z,2.97
2024-02-24T11:28:39.382Z,2.53
2024-02-24T11:31:06.243Z,2.33
2024-02-24T11:33:38.675Z,2.15
2024-02-24T11:36:07.421Z,2.17
2024-02-24T11:38:34.791Z,2.28
2024-02-24T11:41:07.776Z,2.60
2024-02-24T11:43:34.806Z,2.05
2024-02-24T11:46:04.852Z,1.80
2024-02-24T11:48:32.259Z,2.30
2024-02-24T11:50:59.241Z,1.83
2024-02-24T11:53:26.047Z,1.50
2024-02-24T11:55:52.838Z,2.78
2024-02-24T11:58:20.956Z,1.33
2024-02-24T12:00:47.768Z,1.50
2024-02-24T12:03:17.006Z,1.85
2024-02-24T12:05:44.430Z,1.85
2024-02-24T12:08:14.035Z,1.50
2024-02-24T12:10:41.533Z,1.50
2024-02-24T12:13:11.294Z,1.05
2024-02-24T12:15:39.601Z,1.20
2024-02-24T12:18:07.116Z,1.77
2024-02-24T12:20:38.133Z,1.20
2024-02-24T12:23:05.920Z,1.25
2024-02-24T12:25:32.760Z,1.25
2024-02-24T12:28:00.097Z,1.45
2024-02-24T12:30:27.747Z,1.40
2024-02-24T12:32:54.954Z,1.10
2024-02-24T12:35:25.906Z,1.77
2024-02-24T12:37:54.062Z,1.42
2024-02-24T12:40:29.174Z,1.00
2024-02-24T12:42:56.131Z,1.30
2024-02-24T12:45:23.394Z,1.33
2024-02-24T12:47:50.914Z,1.65
2024-02-24T12:50:18.720Z,1.83
2024-02-24T12:52:45.606Z,1.38
2024-02-24T12:55:13.920Z,1.17
2024-02-24T12:57:40.884Z,1.30
2024-02-24T13:00:09.406Z,1.10
2024-02-24T13:02:36.853Z,1.75
2024-02-24T13:05:05.178Z,1.20
2024-02-24T13:07:32.277Z,1.15
2024-02-24T13:09:58.985Z,1.13
2024-02-24T13:12:27.390Z,1.33
2024-02-24T13:14:54.368Z,0.90
2024-02-24T13:17:22.524Z,0.60
2024-02-24T13:19:52.497Z,1.63
2024-02-24T13:22:19.893Z,0.85
2024-02-24T13:24:46.668Z,0.90
2024-02-24T13:27:13.675Z,1.00
2024-02-24T13:29:42.063Z,1.20
2024-02-24T13:32:09.079Z,1.60
2024-02-24T13:34:35.955Z,1.10
2024-02-24T13:37:05.585Z,1.25
2024-02-24T13:39:33.125Z,0.88
2024-02-24T13:41:59.844Z,0.98
2024-02-24T13:44:26.604Z,0.73
2024-02-24T13:46:54.720Z,1.30
2024-02-24T13:49:21.680Z,1.20
2024-02-24T13:51:48.599Z,1.52
2024-02-24T13:54:15.437Z,0.90
2024-02-24T13:56:42.321Z,0.73
2024-02-24T13:59:09.295Z,0.65
2024-02-24T14:01:36.345Z,1.98
2024-02-24T14:04:05.093Z,1.20
2024-02-24T14:06:32.479Z,0.63
2024-02-24T14:09:05.826Z,0.80
2024-02-24T14:11:32.815Z,1.20
2024-02-24T14:13:59.528Z,1.27
2024-02-24T14:16:27.206Z,0.95
2024-02-24T14:21:22.108Z,1.27
2024-02-24T14:23:49.458Z,0.52
2024-02-24T14:26:16.250Z,0.50
2024-02-24T14:28:44.163Z,1.27
2024-02-24T14:31:12.069Z,1.00
2024-02-24T14:33:38.958Z,0.70
2024-02-24T14:36:06.243Z,0.80
2024-02-24T14:38:34.496Z,0.85
2024-02-24T14:41:01.486Z,0.80
2024-02-24T14:43:28.560Z,0.98
2024-02-24T14:45:55.866Z,0.63
2024-02-24T14:48:22.971Z,0.70
2024-02-24T14:50:50.845Z,1.13
2024-02-24T14:53:17.712Z,0.80
2024-02-24T14:55:45.823Z,0.90
2024-02-24T14:58:13.589Z,0.95
2024-02-24T15:00:40.347Z,0.85
2024-02-24T15:03:10.772Z,0.70
2024-02-24T15:05:38.993Z,0.73
2024-02-24T15:08:06.593Z,1.20
2024-02-24T15:10:33.341Z,0.68
2024-02-24T15:13:01.346Z,1.10
2024-02-24T15:15:28.044Z,0.65
2024-02-24T15:17:55.589Z,1.00
2024-02-24T15:20:22.459Z,0.98
2024-02-24T15:22:51.288Z,0.82
2024-02-24T15:25:18.402Z,1.00
2024-02-24T15:27:45.061Z,1.13
2024-02-24T15:30:13.914Z,1.52
2024-02-24T15:32:40.861Z,0.80
2024-02-24T15:35:08.356Z,0.73
2024-02-24T15:37:36.432Z,1.30
2024-02-24T15:40:08.564Z,0.88
2024-02-24T15:42:36.450Z,1.25
2024-02-24T15:45:03.802Z,0.60
2024-02-24T15:47:32.094Z,1.17
2024-02-24T15:49:58.956Z,1.60
2024-02-24T15:52:25.649Z,1.20
2024-02-24T15:54:52.425Z,1.10
2024-02-24T15:57:19.242Z,0.70
2024-02-24T15:59:45.975Z,1.00
2024-02-24T16:02:12.944Z,1.30
2024-02-24T16:04:41.177Z,0.77
2024-02-24T16:07:08.668Z,1.30
2024-02-24T16:09:36.855Z,0.90
2024-02-24T16:12:04.774Z,1.30
2024-02-24T16:14:31.628Z,0.88
2024-02-24T16:16:58.420Z,1.10
2024-02-24T16:19:25.217Z,1.15
2024-02-24T16:21:53.470Z,1.40
2024-02-24T16:24:21.106Z,1.23
2024-02-24T16:26:49.565Z,1.38
2024-02-24T16:29:16.302Z,1.10
2024-02-24T16:31:43.243Z,1.30
2024-02-24T16:34:10.900Z,0.90
2024-02-24T16:36:37.719Z,1.55
2024-02-24T16:39:10.665Z,0.80
2024-02-24T16:41:38.354Z,1.27
2024-02-24T16:44:07.845Z,1.80
2024-02-24T16:46:42.082Z,1.13
2024-02-24T16:49:09.113Z,1.25
2024-02-24T16:51:35.856Z,0.82
2024-02-24T16:54:02.619Z,1.58
2024-02-24T16:56:30.843Z,0.98
2024-02-24T16:58:57.580Z,1.00
2024-02-24T17:01:24.292Z,1.92
2024-02-24T17:03:50.985Z,1.55
2024-02-24T17:06:17.947Z,2.20
2024-02-24T17:08:45.697Z,1.40
2024-02-24T17:11:12.602Z,2.13
2024-02-24T17:13:43.016Z,1.38
2024-02-24T17:16:09.791Z,1.33
2024-02-24T17:18:38.423Z,1.30
2024-02-24T17:21:05.903Z,1.70
2024-02-24T17:23:32.795Z,1.67
2024-02-24T17:25:59.766Z,1.90
2024-02-24T17:28:26.623Z,1.33
2024-02-24T17:30:55.965Z,1.55
2024-02-24T17:33:22.766Z,1.67
2024-02-24T17:35:49.529Z,1.23
2024-02-24T17:38:17.936Z,1.20
2024-02-24T17:40:44.729Z,1.92
2024-02-24T17:43:11.434Z,1.48
2024-02-24T17:45:38.092Z,1.55
2024-02-24T17:48:07.202Z,1.77
2024-02-24T17:50:34.136Z,1.50
2024-02-24T17:53:02.617Z,1.80
2024-02-24T17:55:29.384Z,2.58
2024-02-24T17:57:56.405Z,1.98
2024-02-24T18:00:23.939Z,1.75
2024-02-24T18:02:50.840Z,2.13
2024-02-24T18:05:19.948Z,2.47
2024-02-24T18:07:47.195Z,1.98
2024-02-24T18:10:14.006Z,2.08
2024-02-24T18:12:40.711Z,1.30
2024-02-24T18:15:09.047Z,1.85
2024-02-24T18:17:35.892Z,1.73
2024-02-24T18:20:02.749Z,1.85
2024-02-24T18:22:30.868Z,2.15
2024-02-24T18:24:57.578Z,2.13
2024-02-24T18:27:24.569Z,1.50
2024-02-24T18:29:51.482Z,1.67
2024-02-24T18:32:18.295Z,1.60
2024-02-24T18:34:45.298Z,1.70
2024-02-24T18:37:12.042Z,1.15
2024-02-24T18:39:41.946Z,1.80
2024-02-24T18:42:08.630Z,1.33
2024-02-24T18:44:35.974Z,1.70
2024-02-24T18:47:02.754Z,2.25
2024-02-24T18:49:32.378Z,1.40
2024-02-24T18:51:59.681Z,1.50
2024-02-24T18:54:29.243Z,1.85
2024-02-24T18:56:57.919Z,2.17
2024-02-24T18:59:24.960Z,1.40
2024-02-24T19:01:51.752Z,1.38
2024-02-24T19:04:19.344Z,1.23
2024-02-24T19:06:46.144Z,2.55
2024-02-24T19:09:12.944Z,2.28
2024-02-24T19:11:40.360Z,1.40
2024-02-24T19:14:08.565Z,1.33
2024-02-24T19:16:35.638Z,1.75
2024-02-24T19:19:03.152Z,1.48
2024-02-24T19:21:30.141Z,1.83
2024-02-24T19:23:57.102Z,1.25
2024-02-24T19:26:25.052Z,1.25
2024-02-24T19:28:51.771Z,2.15
2024-02-24T19:31:19.875Z,2.00
2024-02-24T19:33:47.461Z,3.40
2024-02-24T19:36:14.234Z,2.88
2024-02-24T19:38:41.075Z,2.80
2024-02-24T19:41:09.172Z,3.53
2024-02-24T19:43:35.981Z,2.72
2024-02-24T19:46:02.694Z,2.47
2024-02-24T19:48:30.911Z,3.20
2024-02-24T19:50:58.893Z,2.38
2024-02-24T19:53:25.880Z,2.40
2024-02-24T19:55:52.687Z,2.80
2024-02-24T19:58:28.794Z,1.83
2024-02-24T20:01:00.924Z,2.35
2024-02-24T20:03:27.912Z,2.30
2024-02-24T20:05:56.284Z,1.77
2024-02-24T20:08:23.642Z,1.70
2024-02-24T20:10:50.448Z,1.77
2024-02-24T20:13:17.381Z,1.35
2024-02-24T20:15:44.141Z,1.67
2024-02-24T20:18:11.057Z,1.92
2024-02-24T20:20:37.922Z,1.52
2024-02-24T20:23:06.126Z,1.52
2024-02-24T20:25:32.807Z,2.45
2024-02-24T20:28:00.883Z,1.90
2024-02-24T20:30:27.686Z,1.50
2024-02-24T20:32:54.562Z,1.98
2024-02-24T20:35:21.641Z,1.13
2024-02-24T20:37:48.985Z,1.65
2024-02-24T20:40:17.099Z,1.70
2024-02-24T20:42:43.991Z,1.75
2024-02-24T20:45:12.542Z,1.67
2024-02-24T20:47:39.344Z,1.05
2024-02-24T20:50:07.226Z,1.10
2024-02-24T20:52:33.971Z,1.73
2024-02-24T20:55:00.685Z,1.38
2024-02-24T20:57:29.395Z,1.63
2024-02-24T20:59:56.248Z,1.40
2024-02-24T21:02:22.983Z,1.30
2024-02-24T21:04:49.726Z,1.50
2024-02-24T21:07:16.436Z,1.50
2024-02-24T21:09:43.177Z,1.33
2024-02-24T21:12:11.868Z,1.30
2024-02-24T21:14:40.117Z,1.00
2024-02-24T21:17:07.543Z,1.83
2024-02-24T21:19:34.939Z,1.70
2024-02-24T21:22:01.756Z,1.20
2024-02-24T21:24:28.477Z,1.80
2024-02-24T21:26:55.230Z,1.00
2024-02-24T21:29:22.094Z,1.13
2024-02-24T21:31:53.661Z,1.58
2024-02-24T21:34:21.727Z,1.00
2024-02-24T21:36:48.525Z,1.02
2024-02-24T21:39:15.354Z,1.52
2024-02-24T21:41:42.184Z,1.05
2024-02-24T21:44:09.018Z,0.90
2024-02-24T21:46:35.715Z,1.25
2024-02-24T21:49:04.521Z,1.60
2024-02-24T21:51:31.563Z,1.35
2024-02-24T21:53:58.497Z,1.15
2024-02-24T21:56:25.604Z,1.20
2024-02-24T21:58:52.920Z,0.90
2024-02-24T22:01:22.499Z,0.98
2024-02-24T22:03:49.996Z,1.70
2024-02-24T22:06:18.119Z,0.75
2024-02-24T22:08:44.931Z,1.38
2024-02-24T22:11:11.691Z,1.05
2024-02-24T22:13:38.920Z,0.93
2024-02-24T22:16:10.962Z,1.40
2024-02-24T22:18:37.768Z,1.00
2024-02-24T22:21:06.092Z,1.20
2024-02-24T22:23:34.237Z,1.15
2024-02-24T22:26:01.250Z,1.42
2024-02-24T22:28:28.025Z,1.00
2024-02-24T22:30:54.837Z,1.42
2024-02-24T22:33:21.747Z,1.52
2024-02-24T22:35:48.664Z,0.90
2024-02-24T22:38:15.433Z,1.10
2024-02-24T22:40:43.518Z,1.05
2024-02-24T22:43:10.249Z,1.50
2024-02-24T22:45:37.282Z,0.85
2024-02-24T22:48:05.005Z,1.35
2024-02-24T22:50:32.733Z,0.88
2024-02-24T22:52:59.552Z,1.45
2024-02-24T22:55:28.503Z,1.13
2024-02-24T22:57:56.900Z,1.55
2024-02-24T23:00:23.631Z,0.90
2024-02-24T23:02:50.300Z,0.73
2024-02-24T23:05:17.828Z,0.85
2024-02-24T23:07:44.568Z,1.02
2024-02-24T23:10:12.459Z,1.17
2024-02-24T23:12:39.499Z,0.93
2024-02-24T23:15:08.843Z,0.80
2024-02-24T23:17:35.738Z,1.10
2024-02-24T23:20:02.504Z,0.85
2024-02-24T23:22:29.249Z,0.73
2024-02-24T23:24:55.970Z,0.90
2024-02-24T23:27:22.754Z,1.63
2024-02-24T23:29:49.496Z,1.33
2024-02-24T23:32:17.669Z,0.63
2024-02-24T23:34:44.388Z,0.80
2024-02-24T23:37:11.114Z,1.45
2024-02-24T23:39:37.822Z,0.90
2024-02-24T23:42:05.476Z,1.35
2024-02-24T23:44:32.227Z,1.13
2024-02-24T23:46:58.930Z,1.02
2024-02-24T23:49:27.066Z,1.00
2024-02-24T23:51:53.893Z,1.48
2024-02-24T23:54:20.610Z,1.00
2024-02-24T23:56:47.353Z,1.05
2024-02-24T23:59:14.183Z,1.20
